Oralabor, Iowa
Current Conditions -  °F | °C
As of 5:55 AM on Thursday 23 Oct 2014 (Local Time) from KIKV Reporting Station
Overcast Overcast  
Wind Chill: 52°   Ceiling: 8500
Heat Index: 52°   Visibility: 10mi
Dew Point: 50°   Wind: 6mph
Humidity: 94%   Direction: 150°SSE
Pressure: 30.03"   Gusts: NA
Location:  41.7257°N, 93.588°W
Report Text: KIKV 231055Z AUTO 15005KT 10SM FEW015 SCT075 OVC085 11/10 A3003 RMK AO2
Loading
Personal Weather Stations






























Interactive Weather Map
Tropical Storm Tracking
New forecast layout! Learn more

10-Day Weather Forecast

Advertisements
Track Severe Weather on mobile